Riondel, Canada
Current Conditions -  °F | °C
As of 1:29 PM on Thursday 23 Oct 2014 (Local Time) from CYCG Reporting Station
Rain Showers Rain Showers  
Wind Chill: 54°   Ceiling: 3500
Heat Index: 54°   Visibility: 15mi
Dew Point: 48°   Wind: 3mph
Humidity: 82%   Direction: NA
Pressure: 29.73"   Gusts: NA
Location:  49.77°N, 116.85°W
Report Text: CYCG 232029Z VRB03KT 15SM -SHRA FEW006 SCT035 BKN035 BKN080 12/09 A2973 RMK CF1SC3SC2AC1 CF TR TCU EMBD LWR CLD S SLP072 DENSITY ALT 1800FT
Loading
Personal Weather Stations






























Interactive Weather Map
Tropical Storm Tracking
New forecast layout! Learn more

10-Day Weather Forecast

Advertisements
Track Severe Weather on mobile